sensor_id;sensor_type;location;lat;lon;timestamp;P1;durP1;ratioP1;P2;durP2;ratioP2
13487;SDS011;6816;48.506;9.050;2022-12-07T00:01:45;3.20;;;2.90;;
13487;SDS011;6816;48.506;9.050;2022-12-07T00:04:48;4.00;;;3.23;;
13487;SDS011;6816;48.506;9.050;2022-12-07T00:07:49;4.33;;;3.13;;
13487;SDS011;6816;48.506;9.050;2022-12-07T00:10:50;3.53;;;2.90;;
13487;SDS011;6816;48.506;9.050;2022-12-07T00:13:51;3.13;;;2.83;;
13487;SDS011;6816;48.506;9.050;2022-12-07T00:16:54;3.30;;;3.00;;
13487;SDS011;6816;48.506;9.050;2022-12-07T00:19:54;2.90;;;2.70;;
13487;SDS011;6816;48.506;9.050;2022-12-07T00:22:55;3.07;;;2.73;;
13487;SDS011;6816;48.506;9.050;2022-12-07T00:25:55;3.97;;;2.73;;
13487;SDS011;6816;48.506;9.050;2022-12-07T00:29:06;3.47;;;2.57;;
13487;SDS011;6816;48.506;9.050;2022-12-07T00:32:18;2.80;;;2.53;;
13487;SDS011;6816;48.506;9.050;2022-12-07T00:35:19;3.57;;;2.83;;
13487;SDS011;6816;48.506;9.050;2022-12-07T00:38:19;3.20;;;2.90;;
13487;SDS011;6816;48.506;9.050;2022-12-07T00:41:21;2.83;;;2.57;;
13487;SDS011;6816;48.506;9.050;2022-12-07T00:44:23;3.27;;;2.97;;
13487;SDS011;6816;48.506;9.050;2022-12-07T00:47:23;4.27;;;2.77;;
13487;SDS011;6816;48.506;9.050;2022-12-07T00:50:24;3.83;;;2.83;;
13487;SDS011;6816;48.506;9.050;2022-12-07T00:53:24;3.50;;;2.60;;
13487;SDS011;6816;48.506;9.050;2022-12-07T00:56:26;2.80;;;2.50;;
13487;SDS011;6816;48.506;9.050;2022-12-07T00:59:28;2.73;;;2.50;;
13487;SDS011;6816;48.506;9.050;2022-12-07T01:02:29;2.67;;;2.33;;
13487;SDS011;6816;48.506;9.050;2022-12-07T01:05:29;3.70;;;2.90;;
13487;SDS011;6816;48.506;9.050;2022-12-07T01:08:30;3.40;;;3.03;;
13487;SDS011;6816;48.506;9.050;2022-12-07T01:11:31;3.63;;;3.13;;
13487;SDS011;6816;48.506;9.050;2022-12-07T01:14:32;3.60;;;3.30;;
13487;SDS011;6816;48.506;9.050;2022-12-07T01:17:32;3.57;;;3.20;;
13487;SDS011;6816;48.506;9.050;2022-12-07T01:20:33;3.63;;;2.83;;
13487;SDS011;6816;48.506;9.050;2022-12-07T01:23:35;4.03;;;3.03;;
13487;SDS011;6816;48.506;9.050;2022-12-07T01:26:36;4.57;;;3.50;;
13487;SDS011;6816;48.506;9.050;2022-12-07T01:29:36;4.77;;;3.80;;
13487;SDS011;6816;48.506;9.050;2022-12-07T01:32:37;3.87;;;3.40;;
13487;SDS011;6816;48.506;9.050;2022-12-07T01:35:37;3.57;;;3.07;;
13487;SDS011;6816;48.506;9.050;2022-12-07T01:38:38;3.87;;;3.03;;
13487;SDS011;6816;48.506;9.050;2022-12-07T01:41:40;3.53;;;2.83;;
13487;SDS011;6816;48.506;9.050;2022-12-07T01:48:19;2.90;;;2.70;;
13487;SDS011;6816;48.506;9.050;2022-12-07T01:51:24;3.97;;;2.90;;
13487;SDS011;6816;48.506;9.050;2022-12-07T01:54:26;4.20;;;2.90;;
13487;SDS011;6816;48.506;9.050;2022-12-07T01:57:27;2.87;;;2.50;;
13487;SDS011;6816;48.506;9.050;2022-12-07T02:00:28;3.27;;;2.97;;
13487;SDS011;6816;48.506;9.050;2022-12-07T02:03:34;2.73;;;2.47;;
13487;SDS011;6816;48.506;9.050;2022-12-07T02:06:38;3.20;;;2.60;;
13487;SDS011;6816;48.506;9.050;2022-12-07T02:09:39;3.60;;;2.83;;
13487;SDS011;6816;48.506;9.050;2022-12-07T02:12:40;3.83;;;2.90;;
13487;SDS011;6816;48.506;9.050;2022-12-07T02:15:46;3.53;;;2.90;;
13487;SDS011;6816;48.506;9.050;2022-12-07T02:22:46;3.17;;;2.70;;
13487;SDS011;6816;48.506;9.050;2022-12-07T02:29:23;3.43;;;3.10;;
13487;SDS011;6816;48.506;9.050;2022-12-07T02:35:42;3.70;;;2.83;;
13487;SDS011;6816;48.506;9.050;2022-12-07T02:39:12;3.20;;;2.90;;
13487;SDS011;6816;48.506;9.050;2022-12-07T02:42:19;4.40;;;3.40;;
13487;SDS011;6816;48.506;9.050;2022-12-07T02:45:30;4.53;;;3.60;;
13487;SDS011;6816;48.506;9.050;2022-12-07T02:48:34;4.13;;;3.47;;
13487;SDS011;6816;48.506;9.050;2022-12-07T02:51:44;4.33;;;3.47;;
13487;SDS011;6816;48.506;9.050;2022-12-07T02:54:46;3.33;;;2.97;;
13487;SDS011;6816;48.506;9.050;2022-12-07T02:57:55;3.97;;;3.50;;
13487;SDS011;6816;48.506;9.050;2022-12-07T03:01:08;4.50;;;3.70;;
13487;SDS011;6816;48.506;9.050;2022-12-07T03:11:29;4.60;;;3.87;;
13487;SDS011;6816;48.506;9.050;2022-12-07T03:14:45;4.43;;;3.13;;
13487;SDS011;6816;48.506;9.050;2022-12-07T03:17:55;3.33;;;2.80;;
13487;SDS011;6816;48.506;9.050;2022-12-07T03:21:01;3.63;;;2.93;;
13487;SDS011;6816;48.506;9.050;2022-12-07T03:24:05;2.57;;;2.37;;
13487;SDS011;6816;48.506;9.050;2022-12-07T03:27:18;3.60;;;3.23;;
13487;SDS011;6816;48.506;9.050;2022-12-07T03:30:31;3.83;;;2.87;;
13487;SDS011;6816;48.506;9.050;2022-12-07T03:33:38;3.27;;;2.97;;
13487;SDS011;6816;48.506;9.050;2022-12-07T03:36:55;2.73;;;2.47;;
13487;SDS011;6816;48.506;9.050;2022-12-07T03:40:16;4.23;;;2.80;;
13487;SDS011;6816;48.506;9.050;2022-12-07T03:43:30;2.80;;;2.40;;
13487;SDS011;6816;48.506;9.050;2022-12-07T03:49:54;3.37;;;2.90;;
13487;SDS011;6816;48.506;9.050;2022-12-07T03:53:20;3.10;;;2.80;;
13487;SDS011;6816;48.506;9.050;2022-12-07T03:56:29;3.60;;;2.97;;
13487;SDS011;6816;48.506;9.050;2022-12-07T03:59:31;3.37;;;2.90;;
13487;SDS011;6816;48.506;9.050;2022-12-07T04:02:32;3.13;;;2.83;;
13487;SDS011;6816;48.506;9.050;2022-12-07T04:05:33;3.37;;;2.90;;
13487;SDS011;6816;48.506;9.050;2022-12-07T04:08:34;3.80;;;3.00;;
13487;SDS011;6816;48.506;9.050;2022-12-07T04:11:34;3.67;;;2.77;;
13487;SDS011;6816;48.506;9.050;2022-12-07T04:14:35;3.77;;;3.23;;
13487;SDS011;6816;48.506;9.050;2022-12-07T04:17:36;3.67;;;3.13;;
13487;SDS011;6816;48.506;9.050;2022-12-07T04:20:36;3.90;;;3.23;;
13487;SDS011;6816;48.506;9.050;2022-12-07T04:23:37;3.50;;;2.93;;
13487;SDS011;6816;48.506;9.050;2022-12-07T04:26:38;4.10;;;3.43;;
13487;SDS011;6816;48.506;9.050;2022-12-07T04:29:39;4.33;;;3.23;;
13487;SDS011;6816;48.506;9.050;2022-12-07T04:32:39;4.20;;;3.60;;
13487;SDS011;6816;48.506;9.050;2022-12-07T04:35:41;4.60;;;3.73;;
13487;SDS011;6816;48.506;9.050;2022-12-07T04:38:42;4.57;;;3.77;;
13487;SDS011;6816;48.506;9.050;2022-12-07T04:41:43;3.80;;;3.07;;
13487;SDS011;6816;48.506;9.050;2022-12-07T04:44:44;4.73;;;3.53;;
13487;SDS011;6816;48.506;9.050;2022-12-07T04:47:44;3.53;;;2.97;;
13487;SDS011;6816;48.506;9.050;2022-12-07T04:50:47;3.90;;;3.20;;
13487;SDS011;6816;48.506;9.050;2022-12-07T04:53:49;3.53;;;3.07;;
13487;SDS011;6816;48.506;9.050;2022-12-07T04:56:50;3.20;;;2.77;;
13487;SDS011;6816;48.506;9.050;2022-12-07T04:59:51;4.07;;;3.27;;
13487;SDS011;6816;48.506;9.050;2022-12-07T05:02:52;5.10;;;3.23;;
13487;SDS011;6816;48.506;9.050;2022-12-07T05:05:52;3.67;;;3.10;;
13487;SDS011;6816;48.506;9.050;2022-12-07T05:08:53;3.50;;;3.00;;
13487;SDS011;6816;48.506;9.050;2022-12-07T05:11:53;3.97;;;3.07;;
13487;SDS011;6816;48.506;9.050;2022-12-07T05:14:54;3.40;;;2.97;;
13487;SDS011;6816;48.506;9.050;2022-12-07T05:17:55;3.53;;;2.90;;
13487;SDS011;6816;48.506;9.050;2022-12-07T05:20:55;4.40;;;3.40;;
13487;SDS011;6816;48.506;9.050;2022-12-07T05:23:56;4.27;;;3.03;;
13487;SDS011;6816;48.506;9.050;2022-12-07T05:26:56;3.63;;;2.83;;
13487;SDS011;6816;48.506;9.050;2022-12-07T05:29:57;3.60;;;3.20;;
13487;SDS011;6816;48.506;9.050;2022-12-07T05:32:58;4.17;;;3.43;;
13487;SDS011;6816;48.506;9.050;2022-12-07T05:35:58;4.03;;;3.30;;
13487;SDS011;6816;48.506;9.050;2022-12-07T05:39:05;3.90;;;3.00;;
13487;SDS011;6816;48.506;9.050;2022-12-07T05:42:06;4.07;;;3.20;;
13487;SDS011;6816;48.506;9.050;2022-12-07T05:45:12;3.90;;;2.90;;
13487;SDS011;6816;48.506;9.050;2022-12-07T05:48:13;4.10;;;3.20;;
13487;SDS011;6816;48.506;9.050;2022-12-07T05:51:13;3.97;;;2.80;;
13487;SDS011;6816;48.506;9.050;2022-12-07T05:54:14;3.60;;;2.87;;
13487;SDS011;6816;48.506;9.050;2022-12-07T05:57:15;3.30;;;2.80;;
13487;SDS011;6816;48.506;9.050;2022-12-07T06:00:15;3.47;;;2.87;;
13487;SDS011;6816;48.506;9.050;2022-12-07T06:03:16;4.07;;;3.33;;
13487;SDS011;6816;48.506;9.050;2022-12-07T06:06:17;3.10;;;2.80;;
13487;SDS011;6816;48.506;9.050;2022-12-07T06:09:18;4.17;;;3.17;;
13487;SDS011;6816;48.506;9.050;2022-12-07T06:12:20;3.70;;;2.97;;
13487;SDS011;6816;48.506;9.050;2022-12-07T06:15:36;8.03;;;3.57;;
13487;SDS011;6816;48.506;9.050;2022-12-07T06:18:37;4.43;;;3.43;;
13487;SDS011;6816;48.506;9.050;2022-12-07T06:21:37;4.07;;;2.97;;
13487;SDS011;6816;48.506;9.050;2022-12-07T06:24:38;4.83;;;3.40;;
13487;SDS011;6816;48.506;9.050;2022-12-07T06:27:39;3.50;;;2.90;;
13487;SDS011;6816;48.506;9.050;2022-12-07T06:30:40;4.47;;;2.97;;
13487;SDS011;6816;48.506;9.050;2022-12-07T06:33:41;3.67;;;2.87;;
13487;SDS011;6816;48.506;9.050;2022-12-07T06:36:42;3.00;;;2.70;;
13487;SDS011;6816;48.506;9.050;2022-12-07T06:39:42;4.00;;;2.80;;
13487;SDS011;6816;48.506;9.050;2022-12-07T06:42:43;4.33;;;3.10;;
13487;SDS011;6816;48.506;9.050;2022-12-07T06:45:44;3.60;;;3.00;;
13487;SDS011;6816;48.506;9.050;2022-12-07T06:48:45;4.37;;;2.93;;
13487;SDS011;6816;48.506;9.050;2022-12-07T06:51:45;5.30;;;3.50;;
13487;SDS011;6816;48.506;9.050;2022-12-07T06:54:46;4.53;;;3.43;;
13487;SDS011;6816;48.506;9.050;2022-12-07T06:57:47;3.60;;;2.93;;
13487;SDS011;6816;48.506;9.050;2022-12-07T07:00:48;4.77;;;3.63;;
13487;SDS011;6816;48.506;9.050;2022-12-07T07:03:52;5.03;;;3.53;;
13487;SDS011;6816;48.506;9.050;2022-12-07T07:06:52;4.33;;;3.47;;
13487;SDS011;6816;48.506;9.050;2022-12-07T07:09:53;4.30;;;3.90;;
13487;SDS011;6816;48.506;9.050;2022-12-07T07:12:53;5.07;;;3.90;;
13487;SDS011;6816;48.506;9.050;2022-12-07T07:15:54;5.23;;;4.47;;
13487;SDS011;6816;48.506;9.050;2022-12-07T07:18:55;4.63;;;4.00;;
13487;SDS011;6816;48.506;9.050;2022-12-07T07:21:56;5.70;;;4.50;;
13487;SDS011;6816;48.506;9.050;2022-12-07T07:24:56;5.70;;;3.97;;
13487;SDS011;6816;48.506;9.050;2022-12-07T07:27:57;4.90;;;4.07;;
13487;SDS011;6816;48.506;9.050;2022-12-07T07:30:58;4.70;;;3.60;;
13487;SDS011;6816;48.506;9.050;2022-12-07T07:33:58;6.00;;;3.57;;
13487;SDS011;6816;48.506;9.050;2022-12-07T07:36:59;4.90;;;3.40;;
13487;SDS011;6816;48.506;9.050;2022-12-07T07:39:59;3.80;;;2.93;;
13487;SDS011;6816;48.506;9.050;2022-12-07T07:43:00;4.13;;;3.27;;
13487;SDS011;6816;48.506;9.050;2022-12-07T07:46:01;4.00;;;3.33;;
13487;SDS011;6816;48.506;9.050;2022-12-07T07:49:01;3.83;;;3.17;;
13487;SDS011;6816;48.506;9.050;2022-12-07T07:52:02;3.97;;;3.23;;
13487;SDS011;6816;48.506;9.050;2022-12-07T07:55:03;4.03;;;3.30;;
13487;SDS011;6816;48.506;9.050;2022-12-07T07:58:04;5.57;;;3.23;;
13487;SDS011;6816;48.506;9.050;2022-12-07T08:01:06;4.00;;;3.27;;
13487;SDS011;6816;48.506;9.050;2022-12-07T08:04:07;5.13;;;4.10;;
13487;SDS011;6816;48.506;9.050;2022-12-07T08:07:07;5.47;;;3.73;;
13487;SDS011;6816;48.506;9.050;2022-12-07T08:10:09;5.33;;;4.17;;
13487;SDS011;6816;48.506;9.050;2022-12-07T08:13:12;4.83;;;4.33;;
13487;SDS011;6816;48.506;9.050;2022-12-07T08:16:15;6.13;;;4.43;;
13487;SDS011;6816;48.506;9.050;2022-12-07T08:19:15;6.37;;;5.00;;
13487;SDS011;6816;48.506;9.050;2022-12-07T08:22:16;5.80;;;5.00;;
13487;SDS011;6816;48.506;9.050;2022-12-07T08:25:17;6.93;;;5.37;;
13487;SDS011;6816;48.506;9.050;2022-12-07T08:28:18;7.10;;;5.90;;
13487;SDS011;6816;48.506;9.050;2022-12-07T08:31:19;6.63;;;5.20;;
13487;SDS011;6816;48.506;9.050;2022-12-07T08:34:19;7.07;;;5.50;;
13487;SDS011;6816;48.506;9.050;2022-12-07T08:37:20;7.87;;;6.87;;
13487;SDS011;6816;48.506;9.050;2022-12-07T08:40:20;8.57;;;6.83;;
13487;SDS011;6816;48.506;9.050;2022-12-07T08:43:21;7.53;;;6.33;;
13487;SDS011;6816;48.506;9.050;2022-12-07T08:46:26;7.93;;;6.67;;
13487;SDS011;6816;48.506;9.050;2022-12-07T08:49:38;8.20;;;6.33;;
13487;SDS011;6816;48.506;9.050;2022-12-07T08:52:41;8.80;;;6.77;;
13487;SDS011;6816;48.506;9.050;2022-12-07T08:55:43;7.90;;;6.63;;
13487;SDS011;6816;48.506;9.050;2022-12-07T08:58:44;9.00;;;6.60;;
13487;SDS011;6816;48.506;9.050;2022-12-07T09:01:45;8.63;;;6.53;;
13487;SDS011;6816;48.506;9.050;2022-12-07T09:04:46;8.07;;;6.80;;
13487;SDS011;6816;48.506;9.050;2022-12-07T09:07:47;8.53;;;6.60;;
13487;SDS011;6816;48.506;9.050;2022-12-07T09:10:51;8.33;;;6.37;;
13487;SDS011;6816;48.506;9.050;2022-12-07T09:13:51;7.90;;;6.20;;
13487;SDS011;6816;48.506;9.050;2022-12-07T09:16:52;7.23;;;5.97;;
13487;SDS011;6816;48.506;9.050;2022-12-07T09:19:52;7.90;;;6.00;;
13487;SDS011;6816;48.506;9.050;2022-12-07T09:22:53;6.13;;;5.30;;
13487;SDS011;6816;48.506;9.050;2022-12-07T09:25:54;6.80;;;5.90;;
13487;SDS011;6816;48.506;9.050;2022-12-07T09:28:54;7.07;;;5.60;;
13487;SDS011;6816;48.506;9.050;2022-12-07T09:31:55;7.10;;;5.40;;
13487;SDS011;6816;48.506;9.050;2022-12-07T09:34:55;6.60;;;5.63;;
13487;SDS011;6816;48.506;9.050;2022-12-07T09:37:56;6.27;;;4.77;;
13487;SDS011;6816;48.506;9.050;2022-12-07T09:40:57;7.63;;;5.53;;
13487;SDS011;6816;48.506;9.050;2022-12-07T09:44:04;6.60;;;5.63;;
13487;SDS011;6816;48.506;9.050;2022-12-07T09:47:08;6.63;;;5.40;;
13487;SDS011;6816;48.506;9.050;2022-12-07T09:50:14;6.27;;;5.03;;
13487;SDS011;6816;48.506;9.050;2022-12-07T09:53:30;5.93;;;5.20;;
13487;SDS011;6816;48.506;9.050;2022-12-07T09:56:34;6.93;;;5.03;;
13487;SDS011;6816;48.506;9.050;2022-12-07T09:59:35;5.70;;;5.10;;
13487;SDS011;6816;48.506;9.050;2022-12-07T10:02:36;6.00;;;5.20;;
13487;SDS011;6816;48.506;9.050;2022-12-07T10:05:44;6.67;;;5.80;;
13487;SDS011;6816;48.506;9.050;2022-12-07T10:08:48;5.77;;;5.17;;
13487;SDS011;6816;48.506;9.050;2022-12-07T10:12:05;5.70;;;5.10;;
13487;SDS011;6816;48.506;9.050;2022-12-07T10:15:09;5.37;;;4.73;;
13487;SDS011;6816;48.506;9.050;2022-12-07T10:18:19;6.07;;;4.77;;
13487;SDS011;6816;48.506;9.050;2022-12-07T10:21:21;5.83;;;5.13;;
13487;SDS011;6816;48.506;9.050;2022-12-07T10:24:26;6.67;;;5.00;;
13487;SDS011;6816;48.506;9.050;2022-12-07T10:27:31;6.33;;;5.20;;
13487;SDS011;6816;48.506;9.050;2022-12-07T10:30:32;6.23;;;4.70;;
13487;SDS011;6816;48.506;9.050;2022-12-07T10:33:38;5.80;;;4.93;;
13487;SDS011;6816;48.506;9.050;2022-12-07T10:36:49;6.43;;;4.93;;
13487;SDS011;6816;48.506;9.050;2022-12-07T10:39:54;4.73;;;4.23;;
13487;SDS011;6816;48.506;9.050;2022-12-07T10:43:00;5.17;;;4.50;;
13487;SDS011;6816;48.506;9.050;2022-12-07T11:05:06;6.67;;;5.33;;
13487;SDS011;6816;48.506;9.050;2022-12-07T11:11:41;4.37;;;3.97;;
13487;SDS011;6816;48.506;9.050;2022-12-07T11:14:48;4.17;;;3.77;;
13487;SDS011;6816;48.506;9.050;2022-12-07T11:24:12;4.37;;;3.97;;
13487;SDS011;6816;48.506;9.050;2022-12-07T11:30:38;5.17;;;4.10;;
13487;SDS011;6816;48.506;9.050;2022-12-07T11:33:57;5.10;;;3.73;;
13487;SDS011;6816;48.506;9.050;2022-12-07T11:37:12;5.67;;;4.10;;
13487;SDS011;6816;48.506;9.050;2022-12-07T11:43:25;6.50;;;4.00;;
13487;SDS011;6816;48.506;9.050;2022-12-07T11:46:33;5.90;;;4.47;;
13487;SDS011;6816;48.506;9.050;2022-12-07T11:50:26;5.20;;;4.03;;
13487;SDS011;6816;48.506;9.050;2022-12-07T11:53:41;5.30;;;4.37;;
13487;SDS011;6816;48.506;9.050;2022-12-07T11:56:51;5.80;;;4.00;;
13487;SDS011;6816;48.506;9.050;2022-12-07T11:59:57;5.27;;;3.93;;
13487;SDS011;6816;48.506;9.050;2022-12-07T12:03:13;4.10;;;3.40;;
13487;SDS011;6816;48.506;9.050;2022-12-07T12:06:20;4.97;;;3.93;;
13487;SDS011;6816;48.506;9.050;2022-12-07T12:09:33;6.03;;;4.00;;
13487;SDS011;6816;48.506;9.050;2022-12-07T12:12:52;4.40;;;3.77;;
13487;SDS011;6816;48.506;9.050;2022-12-07T12:19:42;5.10;;;4.20;;
13487;SDS011;6816;48.506;9.050;2022-12-07T12:26:26;5.83;;;4.57;;
13487;SDS011;6816;48.506;9.050;2022-12-07T12:29:34;6.47;;;4.70;;
13487;SDS011;6816;48.506;9.050;2022-12-07T12:32:39;5.37;;;4.20;;
13487;SDS011;6816;48.506;9.050;2022-12-07T12:35:41;6.40;;;4.77;;
13487;SDS011;6816;48.506;9.050;2022-12-07T12:39:07;8.23;;;5.50;;
13487;SDS011;6816;48.506;9.050;2022-12-07T12:42:19;4.80;;;4.10;;
13487;SDS011;6816;48.506;9.050;2022-12-07T12:48:35;6.17;;;4.33;;
13487;SDS011;6816;48.506;9.050;2022-12-07T12:51:38;4.67;;;3.90;;
13487;SDS011;6816;48.506;9.050;2022-12-07T13:01:38;5.83;;;3.90;;
13487;SDS011;6816;48.506;9.050;2022-12-07T13:04:52;5.27;;;4.40;;
13487;SDS011;6816;48.506;9.050;2022-12-07T13:08:17;6.23;;;4.57;;
13487;SDS011;6816;48.506;9.050;2022-12-07T13:11:29;6.03;;;4.10;;
13487;SDS011;6816;48.506;9.050;2022-12-07T13:20:45;5.80;;;4.20;;
13487;SDS011;6816;48.506;9.050;2022-12-07T13:27:00;5.20;;;3.77;;
13487;SDS011;6816;48.506;9.050;2022-12-07T13:30:01;6.23;;;3.90;;
13487;SDS011;6816;48.506;9.050;2022-12-07T13:33:08;5.60;;;4.20;;
13487;SDS011;6816;48.506;9.050;2022-12-07T13:39:49;5.00;;;3.93;;
13487;SDS011;6816;48.506;9.050;2022-12-07T13:42:58;5.10;;;4.40;;
13487;SDS011;6816;48.506;9.050;2022-12-07T13:46:03;4.50;;;3.80;;
13487;SDS011;6816;48.506;9.050;2022-12-07T13:49:18;4.67;;;3.93;;
13487;SDS011;6816;48.506;9.050;2022-12-07T13:52:26;4.80;;;3.97;;
13487;SDS011;6816;48.506;9.050;2022-12-07T13:55:28;5.50;;;4.40;;
13487;SDS011;6816;48.506;9.050;2022-12-07T13:58:30;4.40;;;3.63;;
13487;SDS011;6816;48.506;9.050;2022-12-07T14:01:32;5.27;;;4.00;;
13487;SDS011;6816;48.506;9.050;2022-12-07T14:04:37;4.73;;;3.73;;
13487;SDS011;6816;48.506;9.050;2022-12-07T14:07:54;6.03;;;4.37;;
13487;SDS011;6816;48.506;9.050;2022-12-07T14:10:58;6.03;;;4.33;;
13487;SDS011;6816;48.506;9.050;2022-12-07T14:14:00;5.87;;;4.03;;
13487;SDS011;6816;48.506;9.050;2022-12-07T14:17:13;5.07;;;4.13;;
13487;SDS011;6816;48.506;9.050;2022-12-07T14:20:38;6.03;;;3.87;;
13487;SDS011;6816;48.506;9.050;2022-12-07T14:23:40;4.47;;;3.90;;
13487;SDS011;6816;48.506;9.050;2022-12-07T14:26:41;4.93;;;4.23;;
13487;SDS011;6816;48.506;9.050;2022-12-07T14:29:43;7.93;;;4.30;;
13487;SDS011;6816;48.506;9.050;2022-12-07T14:32:43;5.77;;;4.20;;
13487;SDS011;6816;48.506;9.050;2022-12-07T14:35:48;5.93;;;3.93;;
13487;SDS011;6816;48.506;9.050;2022-12-07T14:38:49;5.23;;;4.10;;
13487;SDS011;6816;48.506;9.050;2022-12-07T14:41:49;5.47;;;4.03;;
13487;SDS011;6816;48.506;9.050;2022-12-07T14:44:50;6.07;;;4.07;;
13487;SDS011;6816;48.506;9.050;2022-12-07T14:47:51;4.77;;;4.10;;
13487;SDS011;6816;48.506;9.050;2022-12-07T14:50:52;3.93;;;3.53;;
13487;SDS011;6816;48.506;9.050;2022-12-07T14:53:53;5.13;;;4.13;;
13487;SDS011;6816;48.506;9.050;2022-12-07T14:56:54;6.03;;;4.20;;
13487;SDS011;6816;48.506;9.050;2022-12-07T14:59:54;5.03;;;3.63;;
13487;SDS011;6816;48.506;9.050;2022-12-07T15:02:55;3.97;;;3.20;;
13487;SDS011;6816;48.506;9.050;2022-12-07T15:05:56;3.93;;;2.87;;
13487;SDS011;6816;48.506;9.050;2022-12-07T15:08:57;3.30;;;2.80;;
13487;SDS011;6816;48.506;9.050;2022-12-07T15:11:58;4.23;;;3.27;;
13487;SDS011;6816;48.506;9.050;2022-12-07T15:14:58;3.10;;;2.80;;
13487;SDS011;6816;48.506;9.050;2022-12-07T15:18:01;3.70;;;2.60;;
13487;SDS011;6816;48.506;9.050;2022-12-07T15:21:01;3.70;;;2.50;;
13487;SDS011;6816;48.506;9.050;2022-12-07T15:24:02;3.07;;;2.13;;
13487;SDS011;6816;48.506;9.050;2022-12-07T15:27:03;2.20;;;1.90;;
13487;SDS011;6816;48.506;9.050;2022-12-07T15:30:03;2.70;;;1.83;;
13487;SDS011;6816;48.506;9.050;2022-12-07T15:33:05;1.93;;;1.70;;
13487;SDS011;6816;48.506;9.050;2022-12-07T15:36:05;2.07;;;1.80;;
13487;SDS011;6816;48.506;9.050;2022-12-07T15:39:08;2.00;;;1.70;;
13487;SDS011;6816;48.506;9.050;2022-12-07T15:42:09;2.07;;;1.87;;
13487;SDS011;6816;48.506;9.050;2022-12-07T15:45:10;2.00;;;1.80;;
13487;SDS011;6816;48.506;9.050;2022-12-07T15:48:10;2.47;;;2.03;;
13487;SDS011;6816;48.506;9.050;2022-12-07T15:51:11;2.17;;;1.83;;
13487;SDS011;6816;48.506;9.050;2022-12-07T15:54:13;2.20;;;2.00;;
13487;SDS011;6816;48.506;9.050;2022-12-07T15:57:20;1.80;;;1.60;;
13487;SDS011;6816;48.506;9.050;2022-12-07T16:00:21;2.67;;;1.77;;
13487;SDS011;6816;48.506;9.050;2022-12-07T16:03:22;2.80;;;1.90;;
13487;SDS011;6816;48.506;9.050;2022-12-07T16:06:22;1.80;;;1.70;;
13487;SDS011;6816;48.506;9.050;2022-12-07T16:09:23;3.47;;;1.70;;
13487;SDS011;6816;48.506;9.050;2022-12-07T16:12:24;2.60;;;1.90;;
13487;SDS011;6816;48.506;9.050;2022-12-07T16:15:25;2.43;;;1.50;;
13487;SDS011;6816;48.506;9.050;2022-12-07T16:18:26;2.23;;;2.03;;
13487;SDS011;6816;48.506;9.050;2022-12-07T16:21:27;2.90;;;1.87;;
13487;SDS011;6816;48.506;9.050;2022-12-07T16:24:27;2.70;;;2.07;;
13487;SDS011;6816;48.506;9.050;2022-12-07T16:27:28;3.07;;;2.43;;
13487;SDS011;6816;48.506;9.050;2022-12-07T16:30:29;2.73;;;2.27;;
13487;SDS011;6816;48.506;9.050;2022-12-07T16:33:30;2.10;;;1.90;;
13487;SDS011;6816;48.506;9.050;2022-12-07T16:36:30;5.10;;;2.40;;
13487;SDS011;6816;48.506;9.050;2022-12-07T16:39:32;2.23;;;2.00;;
13487;SDS011;6816;48.506;9.050;2022-12-07T16:42:33;2.93;;;2.57;;
13487;SDS011;6816;48.506;9.050;2022-12-07T16:45:36;3.00;;;2.43;;
13487;SDS011;6816;48.506;9.050;2022-12-07T16:48:37;2.37;;;2.13;;
13487;SDS011;6816;48.506;9.050;2022-12-07T16:51:39;3.23;;;2.20;;
13487;SDS011;6816;48.506;9.050;2022-12-07T16:54:41;3.87;;;2.50;;
13487;SDS011;6816;48.506;9.050;2022-12-07T16:57:41;3.07;;;2.77;;
13487;SDS011;6816;48.506;9.050;2022-12-07T17:00:43;3.00;;;2.50;;
13487;SDS011;6816;48.506;9.050;2022-12-07T17:03:45;3.87;;;2.30;;
13487;SDS011;6816;48.506;9.050;2022-12-07T17:06:45;2.83;;;2.30;;
13487;SDS011;6816;48.506;9.050;2022-12-07T17:09:46;3.20;;;2.67;;
13487;SDS011;6816;48.506;9.050;2022-12-07T17:12:47;2.87;;;2.33;;
13487;SDS011;6816;48.506;9.050;2022-12-07T17:15:57;3.17;;;2.03;;
13487;SDS011;6816;48.506;9.050;2022-12-07T17:19:06;3.23;;;2.70;;
13487;SDS011;6816;48.506;9.050;2022-12-07T17:22:08;3.33;;;2.37;;
13487;SDS011;6816;48.506;9.050;2022-12-07T17:25:12;2.87;;;2.57;;
13487;SDS011;6816;48.506;9.050;2022-12-07T17:28:13;3.30;;;2.27;;
13487;SDS011;6816;48.506;9.050;2022-12-07T17:31:14;2.63;;;2.40;;
13487;SDS011;6816;48.506;9.050;2022-12-07T17:34:17;3.70;;;2.70;;
13487;SDS011;6816;48.506;9.050;2022-12-07T17:37:18;3.03;;;2.70;;
13487;SDS011;6816;48.506;9.050;2022-12-07T17:40:18;3.10;;;2.57;;
13487;SDS011;6816;48.506;9.050;2022-12-07T17:43:19;2.90;;;2.60;;
13487;SDS011;6816;48.506;9.050;2022-12-07T17:46:20;3.20;;;2.50;;
13487;SDS011;6816;48.506;9.050;2022-12-07T17:49:20;3.93;;;3.03;;
13487;SDS011;6816;48.506;9.050;2022-12-07T17:52:21;3.83;;;2.93;;
13487;SDS011;6816;48.506;9.050;2022-12-07T17:55:41;3.27;;;2.50;;
13487;SDS011;6816;48.506;9.050;2022-12-07T17:58:41;3.83;;;2.77;;
13487;SDS011;6816;48.506;9.050;2022-12-07T18:01:42;2.93;;;2.53;;
13487;SDS011;6816;48.506;9.050;2022-12-07T18:04:43;3.30;;;2.37;;
13487;SDS011;6816;48.506;9.050;2022-12-07T18:07:46;4.00;;;2.90;;
13487;SDS011;6816;48.506;9.050;2022-12-07T18:10:47;4.00;;;3.10;;
13487;SDS011;6816;48.506;9.050;2022-12-07T18:13:47;4.60;;;3.23;;
13487;SDS011;6816;48.506;9.050;2022-12-07T18:16:48;9.10;;;4.90;;
13487;SDS011;6816;48.506;9.050;2022-12-07T18:19:49;7.03;;;4.87;;
13487;SDS011;6816;48.506;9.050;2022-12-07T18:22:49;5.10;;;4.50;;
13487;SDS011;6816;48.506;9.050;2022-12-07T18:25:50;6.47;;;4.87;;
13487;SDS011;6816;48.506;9.050;2022-12-07T18:28:51;6.10;;;4.67;;
13487;SDS011;6816;48.506;9.050;2022-12-07T18:31:52;7.40;;;4.60;;
13487;SDS011;6816;48.506;9.050;2022-12-07T18:34:52;6.03;;;4.13;;
13487;SDS011;6816;48.506;9.050;2022-12-07T18:37:53;5.53;;;4.20;;
13487;SDS011;6816;48.506;9.050;2022-12-07T18:40:54;5.77;;;4.27;;
13487;SDS011;6816;48.506;9.050;2022-12-07T18:43:54;4.50;;;3.70;;
13487;SDS011;6816;48.506;9.050;2022-12-07T18:46:55;4.37;;;3.53;;
13487;SDS011;6816;48.506;9.050;2022-12-07T18:49:56;5.17;;;3.83;;
13487;SDS011;6816;48.506;9.050;2022-12-07T18:53:00;4.47;;;3.90;;
13487;SDS011;6816;48.506;9.050;2022-12-07T18:59:04;4.77;;;3.40;;
13487;SDS011;6816;48.506;9.050;2022-12-07T19:02:24;4.70;;;3.70;;
13487;SDS011;6816;48.506;9.050;2022-12-07T19:05:25;3.60;;;3.10;;
13487;SDS011;6816;48.506;9.050;2022-12-07T19:08:27;4.63;;;3.33;;
13487;SDS011;6816;48.506;9.050;2022-12-07T19:11:29;4.50;;;3.53;;
13487;SDS011;6816;48.506;9.050;2022-12-07T19:14:49;4.67;;;3.70;;
13487;SDS011;6816;48.506;9.050;2022-12-07T19:17:50;5.23;;;3.83;;
13487;SDS011;6816;48.506;9.050;2022-12-07T19:20:50;5.83;;;3.93;;
13487;SDS011;6816;48.506;9.050;2022-12-07T19:23:51;4.70;;;3.93;;
13487;SDS011;6816;48.506;9.050;2022-12-07T19:26:52;4.30;;;3.60;;
13487;SDS011;6816;48.506;9.050;2022-12-07T19:29:52;4.83;;;3.60;;
13487;SDS011;6816;48.506;9.050;2022-12-07T19:32:53;5.13;;;3.77;;
13487;SDS011;6816;48.506;9.050;2022-12-07T19:35:54;4.07;;;3.67;;
13487;SDS011;6816;48.506;9.050;2022-12-07T19:38:54;5.17;;;4.10;;
13487;SDS011;6816;48.506;9.050;2022-12-07T19:41:55;4.53;;;3.97;;
13487;SDS011;6816;48.506;9.050;2022-12-07T19:44:56;4.67;;;3.60;;
13487;SDS011;6816;48.506;9.050;2022-12-07T19:47:56;4.97;;;3.97;;
13487;SDS011;6816;48.506;9.050;2022-12-07T19:51:01;4.47;;;4.03;;
13487;SDS011;6816;48.506;9.050;2022-12-07T19:54:03;4.33;;;3.63;;
13487;SDS011;6816;48.506;9.050;2022-12-07T19:57:04;6.53;;;4.47;;
13487;SDS011;6816;48.506;9.050;2022-12-07T20:00:06;5.27;;;4.20;;
13487;SDS011;6816;48.506;9.050;2022-12-07T20:03:07;5.53;;;4.90;;
13487;SDS011;6816;48.506;9.050;2022-12-07T20:06:09;5.63;;;4.83;;
13487;SDS011;6816;48.506;9.050;2022-12-07T20:09:12;6.57;;;4.60;;
13487;SDS011;6816;48.506;9.050;2022-12-07T20:12:13;5.97;;;4.73;;
13487;SDS011;6816;48.506;9.050;2022-12-07T20:15:32;6.20;;;4.67;;